createdAt,value
2018-04-19T05:57:56.651Z,202.50
2018-04-19T05:58:57.344Z,202.50
2018-04-19T05:59:57.296Z,202.50
2018-04-19T06:00:57.092Z,174.38
2018-04-19T06:01:57.073Z,191.25
2018-04-19T06:02:57.080Z,185.63
2018-04-19T06:03:56.513Z,185.63
2018-04-19T06:04:57.128Z,208.13
2018-04-19T06:05:56.897Z,219.38
2018-04-19T06:06:56.963Z,225.00
2018-04-19T06:07:57.820Z,230.63
2018-04-19T06:08:56.415Z,247.50
2018-04-19T06:26:05.523Z,1513.13
2018-04-19T06:27:05.584Z,1591.88
2018-04-19T06:29:26.657Z,1738.13
2018-04-19T06:30:24.677Z,1794.38
2018-04-19T06:32:19.821Z,1940.63
2018-04-19T06:33:19.191Z,2002.50
2018-04-19T06:34:19.758Z,2081.25
2018-04-19T06:35:19.021Z,2171.25
2018-04-19T06:36:19.095Z,2244.38
2018-04-19T06:37:19.162Z,2238.75
2018-04-19T06:38:19.170Z,2283.75
2018-04-19T06:39:19.702Z,2295.00
2018-04-19T06:40:19.149Z,2328.75
2018-04-19T06:41:18.800Z,2334.38
2018-04-19T06:42:18.703Z,2323.13
2018-04-19T06:43:18.693Z,2311.88
2018-04-19T06:44:18.678Z,2289.38
2018-04-19T06:45:18.776Z,2115.00
2018-04-19T06:46:18.662Z,1991.25
2018-04-19T06:47:18.635Z,2216.25
2018-04-19T06:48:18.587Z,2188.13
2018-04-19T06:49:18.560Z,1591.88
2018-04-19T06:50:18.579Z,1175.63
2018-04-19T06:51:18.663Z,1001.25
2018-04-19T06:52:18.539Z,1147.50
2018-04-19T06:53:18.548Z,1085.63
2018-04-19T06:54:18.571Z,675.00
2018-04-19T06:55:18.480Z,1366.88
2018-04-19T06:56:18.605Z,1935.00
2018-04-19T06:57:18.542Z,1704.38
2018-04-19T06:58:18.503Z,1580.63
2018-04-19T06:59:18.470Z,1777.50
2018-04-19T07:00:18.440Z,1884.38
2018-04-19T07:01:18.423Z,1951.88
2018-04-19T07:02:19.020Z,1670.63
2018-04-19T07:03:18.398Z,1428.75
2018-04-19T07:04:18.384Z,1473.75
2018-04-19T07:05:18.355Z,1164.38
2018-04-19T07:06:18.388Z,984.38
2018-04-19T07:07:18.328Z,1372.50
2018-04-19T07:08:18.345Z,1884.38
2018-04-19T07:09:18.351Z,1918.13
2018-04-19T07:10:18.302Z,1935.00
2018-04-19T07:11:18.354Z,1687.50
2018-04-19T07:12:18.320Z,1462.50
2018-04-19T07:13:18.296Z,1665.00
2018-04-19T07:14:18.297Z,1884.38
2018-04-19T07:15:18.298Z,1951.88
2018-04-19T07:16:18.277Z,1923.75
2018-04-19T07:17:18.224Z,1563.75
2018-04-19T07:18:18.305Z,1676.25
2018-04-19T07:19:18.228Z,1951.88
2018-04-19T07:20:18.246Z,1974.38
2018-04-19T07:21:18.337Z,1951.88
2018-04-19T07:22:18.238Z,1974.38
2018-04-19T07:23:18.186Z,1985.63
2018-04-19T07:24:18.194Z,1929.38
2018-04-19T07:25:18.185Z,1935.00
2018-04-19T07:26:18.266Z,1923.75
2018-04-19T07:27:18.138Z,1963.13
2018-04-19T07:28:18.175Z,2002.50
2018-04-19T07:29:18.117Z,2008.13
2018-04-19T07:30:18.113Z,2013.75
2018-04-19T07:31:18.142Z,2013.75
2018-04-19T07:32:18.114Z,1974.38
2018-04-19T07:33:18.152Z,1963.13
2018-04-19T07:34:18.112Z,1985.63
2018-04-19T07:35:18.097Z,2053.13
2018-04-19T07:36:18.072Z,2137.50
2018-04-19T07:37:18.144Z,2137.50
2018-04-19T07:38:18.087Z,2131.88
2018-04-19T07:39:18.074Z,2205.00
2018-04-19T07:40:18.144Z,2216.25
2018-04-19T07:41:18.068Z,2266.88
2018-04-19T07:42:18.065Z,2261.25
2018-04-19T07:43:18.038Z,2210.63
2018-04-19T07:44:18.040Z,2182.50
2018-04-19T07:45:18.052Z,2165.63
2018-04-19T07:46:18.105Z,2126.25
2018-04-19T07:47:18.018Z,2109.38
2018-04-19T07:48:18.032Z,2154.38
2018-04-19T07:49:18.001Z,2233.13
2018-04-19T07:50:18.030Z,2233.13
2018-04-19T07:51:18.022Z,2233.13
2018-04-19T07:52:18.013Z,2250.00
2018-04-19T07:53:17.964Z,2255.63
2018-04-19T07:54:18.048Z,2233.13
2018-04-19T07:55:17.972Z,2193.75
2018-04-19T07:56:17.943Z,2154.38
2018-04-19T07:57:18.485Z,2182.50
2018-04-19T07:58:18.569Z,2199.38
2018-04-19T07:59:17.970Z,2205.00
2018-04-19T08:00:17.986Z,2193.75
2018-04-19T08:01:17.991Z,2137.50
2018-04-19T08:02:18.021Z,2137.50
2018-04-19T08:03:17.949Z,2115.00
2018-04-19T08:04:17.954Z,2008.13
2018-04-19T08:05:17.990Z,2025.00
2018-04-19T08:06:17.970Z,2008.13
2018-04-19T08:07:17.998Z,2013.75
2018-04-19T08:08:17.972Z,1991.25
2018-04-19T08:09:18.004Z,2064.38
2018-04-19T08:10:18.036Z,2092.50
2018-04-19T08:11:17.942Z,2227.50
2018-04-19T08:12:17.979Z,2300.63
2018-04-19T08:13:18.177Z,2356.88
2018-04-19T08:14:17.998Z,2508.75
2018-04-19T08:15:17.897Z,2570.63
2018-04-19T08:16:17.947Z,2598.75
2018-04-19T08:17:17.902Z,2553.75
2018-04-19T08:18:17.898Z,2548.13
2018-04-19T08:19:17.886Z,2463.75
2018-04-19T08:20:17.942Z,2441.25
2018-04-19T08:21:17.907Z,2430.00
2018-04-19T08:22:17.939Z,2441.25
2018-04-19T08:23:17.972Z,2430.00
2018-04-19T08:24:17.940Z,2424.38
2018-04-19T08:25:17.970Z,2480.63
2018-04-19T08:26:17.889Z,2508.75
2018-04-19T08:29:18.637Z,2486.25
2018-04-19T08:30:34.787Z,2520.00
2018-04-19T08:31:09.785Z,2514.38
2018-04-19T08:33:44.227Z,2587.50
2018-04-19T08:39:06.577Z,2795.63
2018-04-19T08:42:14.899Z,2835.00
2018-04-19T08:43:14.197Z,2705.63
2018-04-19T08:44:24.818Z,2773.13
2018-04-19T08:53:51.956Z,3003.75
2018-04-19T08:54:51.868Z,3155.63
2018-04-19T08:55:51.941Z,3195.00
2018-04-19T08:56:51.868Z,3279.38
2018-04-19T08:57:51.516Z,3256.88
2018-04-19T08:58:51.941Z,3088.13
2018-04-19T08:59:51.860Z,3065.63
2018-04-19T09:00:51.484Z,3020.63
2018-04-19T09:01:52.686Z,2998.13
2018-04-19T09:02:53.181Z,3093.75
2018-04-19T09:03:51.455Z,3206.25
2018-04-19T09:04:51.708Z,3307.50
2018-04-19T09:05:51.498Z,3335.63
2018-04-19T09:06:51.730Z,3420.00
2018-04-19T09:07:55.024Z,3560.63
2018-04-19T09:08:51.996Z,3763.13
2018-04-19T09:09:52.122Z,3796.88
2018-04-19T09:10:52.027Z,3678.75
2018-04-19T09:11:51.714Z,3751.88
2018-04-19T09:12:52.480Z,3673.13
2018-04-19T09:13:51.646Z,3515.63
2018-04-19T09:14:52.995Z,3633.75
2018-04-19T09:15:55.217Z,3425.63
2018-04-19T09:16:52.334Z,3330.00
2018-04-19T09:17:51.540Z,3256.88
2018-04-19T09:18:51.778Z,3043.13
2018-04-19T09:19:51.569Z,2970.00
2018-04-19T09:20:51.565Z,2874.38
2018-04-19T09:21:51.554Z,2778.75
2018-04-19T09:22:51.706Z,2688.75
2018-04-19T09:23:54.129Z,2688.75
2018-04-19T09:24:51.644Z,2711.25
2018-04-19T09:25:51.645Z,2655.00
2018-04-19T09:26:51.796Z,2610.00
2018-04-19T09:27:51.677Z,2593.13
2018-04-19T09:28:51.922Z,2553.75
2018-04-19T09:29:51.614Z,2542.50
2018-04-19T09:30:51.600Z,2520.00
2018-04-19T09:31:51.586Z,2520.00
2018-04-19T09:32:51.998Z,2508.75
2018-04-19T09:33:51.601Z,2508.75
2018-04-19T09:34:53.151Z,2497.50
2018-04-19T09:35:51.587Z,2497.50
2018-04-19T09:36:51.626Z,2491.88
2018-04-19T09:37:51.592Z,2508.75
2018-04-19T09:38:51.649Z,2503.13
2018-04-19T09:39:52.377Z,2514.38
2018-04-19T09:40:51.598Z,2520.00
2018-04-19T09:41:51.869Z,2514.38
2018-04-19T09:42:52.152Z,2531.25
2018-04-19T09:43:51.806Z,2548.13
2018-04-19T09:44:53.467Z,2576.25
2018-04-19T09:55:43.424Z,2705.63
2018-04-19T09:56:43.274Z,2716.88
2018-04-19T09:57:42.351Z,2728.13
2018-04-19T10:32:29.908Z,3256.88
2018-04-19T10:45:15.703Z,3324.38
2018-04-19T10:46:03.761Z,3318.75
2018-04-19T10:47:03.587Z,3290.63
2018-04-19T10:48:03.115Z,3330.00
2018-04-19T10:49:03.622Z,3301.88
2018-04-19T10:50:05.725Z,3285.00
2018-04-19T10:51:03.341Z,3290.63
2018-04-19T10:52:12.150Z,3256.88
2018-04-19T11:32:06.605Z,2694.38
2018-04-19T11:34:46.235Z,2604.38
2018-04-19T11:37:24.818Z,2553.75
2018-04-19T11:38:24.924Z,2565.00
2018-04-19T11:39:25.082Z,2548.13
2018-04-19T11:40:25.128Z,2536.88
2018-04-19T11:41:25.728Z,2525.63
2018-04-19T11:42:25.325Z,2514.38
2018-04-19T11:43:24.849Z,2497.50
2018-04-19T11:44:24.427Z,2469.38
2018-04-19T11:45:24.593Z,2424.38
2018-04-19T11:46:24.665Z,2407.50
2018-04-19T11:47:25.940Z,2390.63
2018-04-19T11:54:56.527Z,2278.13
2018-04-19T11:55:55.933Z,2255.63
2018-04-19T12:52:30.010Z,3358.13
2018-04-19T12:53:30.479Z,3285.00
2018-04-19T12:57:36.292Z,2778.75
2018-04-19T12:58:32.353Z,2722.50
2018-04-19T12:59:35.910Z,3301.88
2018-04-19T13:00:31.860Z,3729.38
2018-04-19T13:01:32.390Z,3926.25
2018-04-19T13:05:17.584Z,3858.75
2018-04-19T13:06:16.993Z,3870.00
2018-04-19T13:07:16.987Z,3830.63
2018-04-19T13:08:17.226Z,4072.50
2018-04-19T13:09:16.772Z,4123.13
2018-04-19T13:10:16.738Z,4185.00
2018-04-19T13:11:16.711Z,4038.75
2018-04-19T13:12:16.628Z,4117.50
2018-04-19T13:13:16.695Z,4291.88
2018-04-19T13:14:16.700Z,4230.00
2018-04-19T13:15:16.831Z,4314.38
2018-04-19T13:16:16.698Z,4370.63
2018-04-19T13:18:38.294Z,4629.38
2018-04-19T13:19:38.748Z,4421.25
2018-04-19T13:31:33.906Z,4376.25
2018-04-19T13:39:37.651Z,3993.75
2018-04-19T13:42:15.884Z,3993.75
2018-04-19T13:43:15.842Z,4033.13
2018-04-19T13:44:16.405Z,4050.00
2018-04-19T13:45:15.755Z,3909.38
2018-04-19T13:46:15.499Z,3594.38
2018-04-19T13:47:15.603Z,3313.13
2018-04-19T13:48:16.221Z,3538.13
2018-04-19T13:49:15.933Z,4027.50
2018-04-19T13:50:15.642Z,4140.00
2018-04-19T13:51:15.790Z,3965.63
2018-04-19T13:52:15.447Z,3898.13
2018-04-19T13:53:15.645Z,4078.13
2018-04-19T13:54:15.592Z,3993.75
2018-04-19T13:55:15.578Z,3830.63
2018-04-19T13:56:15.477Z,3768.75
2018-04-19T13:57:15.571Z,3785.63
2018-04-19T13:58:15.635Z,3616.88
2018-04-19T13:59:15.626Z,3352.50
2018-04-19T14:00:16.059Z,3594.38
2018-04-19T14:01:15.524Z,3960.00
2018-04-19T14:02:16.037Z,3695.63
2018-04-19T14:03:15.566Z,3431.25
2018-04-19T14:04:15.516Z,3633.75
2018-04-19T14:05:15.684Z,3875.63
2018-04-19T14:06:16.086Z,3645.00
2018-04-19T14:07:15.741Z,3605.63
2018-04-19T14:08:15.929Z,3358.13
2018-04-19T14:09:15.496Z,3352.50
2018-04-19T14:10:15.767Z,3324.38
2018-04-19T14:11:15.585Z,3256.88
2018-04-19T14:12:15.636Z,3420.00
2018-04-19T14:13:15.522Z,3391.88
2018-04-19T14:14:15.512Z,3380.63
2018-04-19T14:15:15.593Z,3380.63
2018-04-19T14:16:15.657Z,3459.38
2018-04-19T14:17:15.561Z,3498.75
2018-04-19T14:18:15.553Z,3510.00
2018-04-19T14:19:15.679Z,3521.25
2018-04-19T14:20:15.757Z,3251.25
2018-04-19T14:21:15.666Z,3043.13
2018-04-19T14:22:15.550Z,2818.13
2018-04-19T14:23:15.747Z,2885.63
2018-04-19T14:24:15.763Z,3048.75
2018-04-19T14:25:15.602Z,3020.63
2018-04-19T14:26:15.771Z,3453.75
2018-04-19T14:27:15.579Z,3701.25
2018-04-19T14:28:15.778Z,3521.25
2018-04-19T14:29:15.543Z,3217.50
2018-04-19T14:30:15.554Z,3431.25
2018-04-19T14:31:15.589Z,3352.50
2018-04-19T14:32:15.545Z,3256.88
2018-04-19T14:33:15.637Z,3189.38
2018-04-19T14:34:15.565Z,3324.38
2018-04-19T14:35:16.141Z,3211.88
2018-04-19T14:36:15.873Z,3088.13
2018-04-19T14:37:20.722Z,3060.00
2018-04-19T14:38:15.936Z,2446.88
2018-04-19T15:05:11.524Z,241.88
2018-04-19T15:06:11.660Z,241.88
2018-04-19T15:07:16.295Z,241.88
2018-04-19T15:09:55.922Z,230.63
2018-04-19T15:10:54.707Z,225.00
2018-04-19T15:20:40.363Z,219.38
2018-04-19T15:27:15.929Z,202.50
2018-04-19T15:28:01.223Z,202.50
2018-04-19T15:29:01.238Z,196.88
2018-04-19T15:30:01.685Z,196.88
2018-04-19T15:37:50.895Z,180.00
2018-04-19T15:38:42.791Z,180.00
2018-04-19T15:39:42.135Z,185.63
2018-04-19T15:40:42.024Z,185.63
2018-04-19T15:41:42.798Z,191.25
2018-04-19T15:42:41.985Z,191.25
2018-04-19T15:43:42.158Z,185.63
2018-04-19T15:46:04.836Z,185.63
2018-04-19T15:47:04.072Z,180.00
2018-04-19T15:48:16.794Z,180.00
2018-04-19T15:49:59.986Z,180.00
2018-04-19T15:57:22.198Z,174.38
2018-04-19T15:58:21.561Z,174.38
2018-04-19T15:59:19.582Z,174.38
2018-04-19T16:21:02.228Z,146.25
2018-04-19T16:21:56.028Z,146.25
2018-04-19T16:24:56.111Z,140.63
2018-04-19T16:36:54.640Z,123.75
2018-04-19T16:37:54.295Z,123.75
2018-04-19T16:41:13.348Z,123.75
2018-04-19T16:42:12.762Z,123.75
2018-04-19T16:43:13.428Z,123.75
2018-04-19T16:44:14.497Z,118.13
2018-04-19T16:45:17.079Z,118.13
2018-04-19T17:12:42.658Z,73.13
2018-04-19T17:18:52.318Z,67.50
2018-04-19T17:32:37.138Z,61.88
2018-04-19T17:33:37.494Z,61.88
2018-04-19T17:34:41.183Z,61.88
2018-04-19T17:56:36.592Z,39.38
2018-04-19T18:24:37.920Z,5.63
2018-04-19T18:25:38.733Z,5.63
2018-04-19T18:31:08.285Z,0.00
2018-04-19T18:32:09.150Z,0.00
2018-04-19T18:33:08.094Z,0.00
2018-04-19T18:34:08.093Z,0.00
2018-04-19T18:35:08.485Z,0.00
2018-04-19T18:36:09.977Z,0.00
2018-04-19T18:37:07.696Z,0.00
2018-04-19T18:38:07.647Z,0.00
2018-04-19T18:39:09.162Z,0.00
2018-04-19T18:40:07.654Z,0.00
2018-04-19T18:41:08.299Z,0.00
2018-04-19T18:42:08.859Z,0.00
2018-04-19T18:43:07.714Z,0.00
2018-04-19T18:44:07.996Z,0.00
2018-04-19T18:45:07.510Z,0.00
2018-04-19T18:46:07.535Z,0.00
2018-04-19T18:47:07.492Z,0.00
2018-04-19T18:48:07.510Z,0.00
2018-04-19T18:49:07.476Z,0.00
2018-04-19T18:50:07.737Z,0.00
2018-04-19T18:52:50.048Z,0.00
2018-04-19T18:53:49.845Z,0.00
2018-04-19T18:56:43.910Z,0.00
2018-04-19T18:57:43.533Z,0.00
2018-04-19T18:58:43.271Z,0.00
2018-04-19T18:59:42.850Z,0.00
2018-04-19T19:00:42.690Z,0.00
2018-04-19T19:01:42.955Z,0.00
2018-04-19T19:02:42.556Z,0.00
2018-04-19T19:03:42.310Z,0.00
2018-04-19T19:04:42.294Z,0.00
2018-04-19T19:05:42.334Z,0.00
2018-04-19T19:06:42.282Z,0.00
2018-04-19T19:07:42.365Z,0.00
2018-04-19T19:08:42.216Z,0.00
2018-04-19T19:09:42.320Z,0.00
2018-04-19T19:10:42.218Z,0.00
2018-04-19T19:11:42.207Z,0.00
2018-04-19T19:12:42.185Z,0.00
2018-04-19T19:13:42.243Z,0.00
2018-04-19T19:14:42.152Z,0.00
2018-04-19T19:15:42.122Z,0.00
2018-04-19T19:16:42.187Z,0.00
2018-04-19T19:17:42.161Z,0.00
2018-04-19T19:18:42.185Z,0.00
2018-04-19T19:19:42.077Z,0.00
2018-04-19T19:20:42.167Z,0.00
2018-04-19T19:21:42.034Z,0.00
2018-04-19T19:22:42.042Z,0.00
2018-04-19T19:23:42.710Z,0.00
2018-04-19T19:24:42.076Z,0.00
2018-04-19T19:25:42.492Z,0.00
2018-04-19T19:26:41.940Z,0.00
2018-04-19T19:27:41.957Z,0.00
2018-04-19T19:28:41.921Z,0.00
2018-04-19T19:29:41.906Z,0.00
2018-04-19T19:30:41.856Z,0.00
2018-04-19T19:31:41.883Z,0.00
2018-04-19T19:32:41.902Z,0.00
2018-04-19T19:33:41.838Z,0.00
2018-04-19T19:34:41.812Z,0.00
2018-04-19T19:35:41.791Z,0.00
2018-04-19T19:36:41.779Z,0.00
2018-04-19T19:37:41.764Z,0.00
2018-04-19T19:38:41.744Z,0.00
2018-04-19T19:39:41.715Z,0.00
2018-04-19T19:40:41.687Z,0.00
2018-04-19T19:41:41.724Z,0.00
2018-04-19T19:42:41.682Z,0.00
2018-04-19T19:43:41.721Z,0.00
2018-04-19T19:44:42.489Z,0.00
2018-04-19T19:45:41.612Z,0.00
2018-04-19T19:46:41.633Z,0.00
2018-04-19T19:47:41.563Z,0.00
2018-04-19T19:48:41.556Z,0.00
2018-04-19T19:49:41.580Z,0.00
2018-04-19T19:50:41.541Z,0.00
2018-04-19T19:51:41.527Z,0.00
2018-04-19T19:52:41.555Z,0.00
2018-04-19T19:53:41.497Z,0.00
2018-04-19T19:54:41.459Z,0.00
2018-04-19T19:55:41.550Z,0.00
2018-04-19T19:56:41.532Z,0.00
2018-04-19T19:57:41.470Z,0.00
2018-04-19T19:58:41.390Z,0.00
2018-04-19T19:59:41.397Z,0.00
2018-04-19T20:00:41.363Z,0.00
2018-04-19T20:01:41.381Z,0.00
2018-04-19T20:02:41.438Z,0.00
2018-04-19T20:03:41.327Z,0.00
2018-04-19T20:04:41.303Z,0.00
2018-04-19T20:05:41.338Z,0.00
2018-04-19T20:06:41.271Z,0.00
2018-04-19T20:07:41.253Z,0.00
2018-04-19T20:08:41.283Z,0.00
2018-04-19T20:09:41.204Z,0.00
2018-04-19T20:10:41.278Z,0.00
2018-04-19T20:11:41.184Z,0.00
2018-04-19T20:12:41.203Z,0.00
2018-04-19T20:13:41.190Z,0.00
2018-04-19T20:14:41.123Z,0.00
2018-04-19T20:15:41.099Z,0.00
2018-04-19T20:16:41.152Z,0.00
2018-04-19T20:17:41.087Z,0.00
2018-04-19T20:18:41.050Z,0.00
2018-04-19T20:19:41.134Z,0.00
2018-04-19T20:20:41.103Z,0.00
2018-04-19T20:21:41.031Z,0.00
2018-04-19T20:22:40.987Z,0.00
2018-04-19T20:23:41.005Z,0.00
2018-04-19T20:24:40.995Z,0.00
2018-04-19T20:25:40.970Z,0.00
2018-04-19T20:26:40.996Z,0.00
2018-04-19T20:27:40.865Z,0.00
2018-04-19T20:28:40.906Z,0.00
2018-04-19T20:29:41.138Z,0.00
2018-04-19T20:30:40.930Z,0.00
2018-04-19T20:31:41.089Z,0.00
2018-04-19T20:32:40.859Z,0.00
2018-04-19T20:33:40.815Z,0.00
2018-04-19T20:34:40.804Z,0.00
2018-04-19T20:35:40.758Z,0.00
2018-04-19T20:36:40.753Z,0.00
2018-04-19T20:37:40.732Z,0.00
2018-04-19T20:38:40.733Z,0.00
2018-04-19T20:39:40.731Z,0.00
2018-04-19T20:40:41.474Z,0.00
2018-04-19T20:41:40.677Z,0.00
2018-04-19T20:42:40.679Z,0.00
2018-04-19T20:43:40.681Z,0.00
2018-04-19T20:44:40.592Z,0.00
2018-04-19T20:45:40.608Z,0.00
2018-04-19T20:46:40.616Z,0.00
2018-04-19T20:47:40.586Z,0.00
2018-04-19T20:48:40.617Z,0.00
2018-04-19T20:49:40.513Z,0.00
2018-04-19T20:50:40.522Z,0.00
2018-04-19T20:51:40.514Z,0.00
2018-04-19T20:52:40.482Z,0.00
2018-04-19T20:53:40.533Z,0.00
2018-04-19T20:54:40.440Z,0.00
2018-04-19T20:55:40.492Z,0.00
2018-04-19T20:56:40.437Z,0.00
2018-04-19T20:57:40.526Z,0.00
2018-04-19T20:58:40.371Z,0.00
2018-04-19T20:59:40.395Z,0.00
2018-04-19T21:00:40.428Z,0.00
2018-04-19T21:01:40.378Z,0.00
2018-04-19T21:02:40.302Z,0.00
2018-04-19T21:03:40.294Z,0.00
2018-04-19T21:04:40.329Z,0.00
2018-04-19T21:05:40.341Z,0.00
2018-04-19T21:06:40.229Z,0.00
2018-04-19T21:07:40.218Z,0.00
2018-04-19T21:08:40.234Z,0.00
2018-04-19T21:09:40.176Z,0.00
2018-04-19T21:10:40.151Z,0.00
2018-04-19T21:11:40.160Z,0.00
2018-04-19T21:12:40.487Z,0.00
2018-04-19T21:13:40.120Z,0.00
2018-04-19T21:14:40.128Z,0.00
2018-04-19T21:15:40.060Z,0.00
2018-04-19T21:16:40.034Z,0.00
2018-04-19T21:17:40.104Z,0.00
2018-04-19T21:18:41.003Z,0.00
2018-04-19T21:19:39.998Z,0.00
2018-04-19T21:20:40.097Z,0.00
2018-04-19T21:21:40.298Z,0.00
2018-04-19T21:22:40.208Z,0.00
2018-04-19T21:23:40.481Z,0.00
2018-04-19T21:24:40.733Z,0.00
2018-04-19T21:25:40.483Z,0.00
2018-04-19T21:26:40.166Z,0.00
2018-04-19T21:27:39.831Z,0.00
2018-04-19T21:28:39.829Z,0.00
2018-04-19T21:29:39.794Z,0.00
2018-04-19T21:30:39.822Z,0.00
2018-04-19T21:31:39.771Z,0.00
2018-04-19T21:32:39.769Z,0.00
2018-04-19T21:33:39.733Z,0.00
2018-04-19T21:34:39.718Z,0.00
2018-04-19T21:35:39.700Z,0.00
2018-04-19T21:36:39.726Z,0.00
2018-04-19T21:37:39.704Z,0.00
2018-04-19T21:38:41.811Z,0.00
2018-04-19T21:39:39.720Z,0.00
2018-04-19T21:40:39.654Z,0.00
2018-04-19T21:41:39.580Z,0.00
2018-04-19T21:42:39.616Z,0.00
2018-04-19T21:43:39.560Z,0.00
2018-04-19T21:44:39.594Z,0.00
2018-04-19T21:45:39.562Z,0.00
2018-04-19T21:46:39.500Z,0.00
2018-04-19T21:47:39.484Z,0.00
2018-04-19T21:48:39.484Z,0.00
2018-04-19T21:49:39.473Z,0.00
2018-04-19T21:50:39.399Z,0.00
2018-04-19T21:51:39.433Z,0.00
2018-04-19T21:52:39.527Z,0.00
2018-04-19T21:53:39.477Z,0.00
2018-04-19T21:54:39.463Z,0.00
2018-04-19T21:55:39.394Z,0.00
2018-04-19T21:56:39.363Z,0.00
2018-04-19T21:57:39.423Z,0.00
2018-04-19T21:58:50.125Z,0.00
2018-04-19T21:59:39.354Z,0.00
2018-04-19T22:00:39.250Z,0.00
2018-04-19T22:01:39.271Z,0.00
2018-04-19T22:02:39.282Z,0.00
2018-04-19T22:03:39.197Z,0.00
2018-04-19T22:04:39.224Z,0.00
2018-04-19T22:05:39.277Z,0.00
2018-04-19T22:06:39.216Z,0.00
2018-04-19T22:07:39.116Z,0.00
2018-04-19T22:08:39.180Z,0.00
2018-04-19T22:09:44.247Z,0.00
2018-04-19T22:10:39.090Z,0.00
2018-04-19T22:11:39.040Z,0.00
2018-04-19T22:12:39.132Z,0.00
2018-04-19T22:13:39.151Z,0.00
2018-04-19T22:14:39.039Z,0.00
2018-04-19T22:15:39.111Z,0.00
2018-04-19T22:16:38.968Z,0.00
2018-04-19T22:17:39.049Z,0.00
2018-04-19T22:18:38.981Z,0.00
2018-04-19T22:19:39.177Z,0.00
2018-04-19T22:20:38.964Z,0.00
2018-04-19T22:21:38.977Z,0.00
2018-04-19T22:22:38.986Z,0.00
2018-04-19T22:23:38.888Z,0.00
2018-04-19T22:24:38.835Z,0.00
2018-04-19T22:25:38.955Z,0.00
2018-04-19T22:26:38.865Z,0.00
2018-04-19T22:27:38.810Z,0.00
2018-04-19T22:28:38.866Z,0.00
2018-04-19T22:29:38.767Z,0.00
2018-04-19T22:30:38.782Z,0.00
2018-04-19T22:31:38.782Z,0.00
2018-04-19T22:32:38.767Z,0.00
2018-04-19T22:33:38.672Z,0.00
2018-04-19T22:34:38.626Z,0.00
2018-04-19T22:35:38.646Z,0.00
2018-04-19T22:36:38.677Z,0.00
2018-04-19T22:37:38.638Z,0.00
2018-04-19T22:38:38.566Z,0.00
2018-04-19T22:39:38.594Z,0.00
2018-04-19T22:40:38.527Z,0.00
2018-04-19T22:41:38.547Z,0.00
2018-04-19T22:42:38.446Z,0.00
2018-04-19T22:43:38.455Z,0.00
2018-04-19T22:44:38.466Z,0.00
2018-04-19T22:45:38.443Z,0.00
2018-04-19T22:46:38.450Z,0.00
2018-04-19T22:47:38.412Z,0.00
2018-04-19T22:48:38.402Z,0.00
2018-04-19T22:49:38.392Z,0.00
2018-04-19T22:50:38.379Z,0.00
2018-04-19T22:51:38.355Z,0.00
2018-04-19T22:52:38.303Z,0.00
2018-04-19T22:53:38.354Z,0.00
2018-04-19T22:54:38.329Z,0.00
2018-04-19T22:55:38.235Z,0.00
2018-04-19T22:56:39.026Z,0.00
2018-04-19T22:57:38.205Z,0.00
2018-04-19T22:58:38.238Z,0.00
2018-04-19T22:59:38.166Z,0.00
2018-04-19T23:00:38.169Z,0.00
2018-04-19T23:01:38.132Z,0.00
2018-04-19T23:02:38.123Z,0.00
2018-04-19T23:03:38.051Z,0.00
2018-04-19T23:04:38.066Z,0.00
2018-04-19T23:05:38.086Z,0.00
2018-04-19T23:06:38.051Z,0.00
2018-04-19T23:07:38.004Z,0.00
2018-04-19T23:08:38.023Z,0.00
2018-04-19T23:09:38.077Z,0.00
2018-04-19T23:10:37.969Z,0.00
2018-04-19T23:11:37.981Z,0.00
2018-04-19T23:12:37.914Z,0.00
2018-04-19T23:13:37.922Z,0.00
2018-04-19T23:14:37.952Z,0.00
2018-04-19T23:15:37.964Z,0.00
2018-04-19T23:16:38.547Z,0.00
2018-04-19T23:17:37.848Z,0.00
2018-04-19T23:18:37.943Z,0.00
2018-04-19T23:19:37.794Z,0.00
2018-04-19T23:20:37.775Z,0.00
2018-04-19T23:21:37.865Z,0.00
2018-04-19T23:22:37.844Z,0.00
2018-04-19T23:23:37.700Z,0.00
2018-04-19T23:24:37.751Z,0.00
2018-04-19T23:25:37.687Z,0.00
2018-04-19T23:26:37.624Z,0.00
2018-04-19T23:27:37.695Z,0.00
2018-04-19T23:28:37.770Z,0.00
2018-04-19T23:29:37.634Z,0.00
2018-04-19T23:30:37.744Z,0.00
2018-04-19T23:31:37.651Z,0.00
2018-04-19T23:32:37.560Z,0.00
2018-04-19T23:33:37.570Z,0.00
2018-04-19T23:34:37.648Z,0.00
2018-04-19T23:35:37.478Z,0.00
2018-04-19T23:36:37.459Z,0.00
2018-04-19T23:37:37.604Z,0.00
2018-04-19T23:38:37.451Z,0.00
2018-04-19T23:39:37.479Z,0.00
2018-04-19T23:40:37.437Z,0.00
2018-04-19T23:41:37.451Z,0.00
2018-04-19T23:42:37.403Z,0.00
2018-04-19T23:43:37.381Z,0.00
2018-04-19T23:44:37.348Z,0.00
2018-04-19T23:45:37.337Z,0.00
2018-04-19T23:46:37.388Z,0.00
2018-04-19T23:47:37.256Z,0.00
2018-04-19T23:48:37.275Z,0.00
2018-04-19T23:49:37.315Z,0.00
2018-04-19T23:50:37.223Z,0.00
2018-04-19T23:51:37.220Z,0.00
2018-04-19T23:52:37.182Z,0.00
2018-04-19T23:53:37.185Z,0.00
2018-04-19T23:54:37.150Z,0.00
2018-04-19T23:55:37.093Z,0.00
2018-04-19T23:56:37.122Z,0.00
2018-04-19T23:57:37.154Z,0.00
2018-04-19T23:58:37.069Z,0.00
2018-04-19T23:59:37.038Z,0.00
